Time;durP1;ratioP1;P1;durP2;ratioP2;P2;SDS_P1;SDS_P2;PMS_P1;PMS_P2;Temp;Humidity;BMP_temperature;BMP_pressure;BME280_temperature;BME280_humidity;BME280_pressure;Samples;Min_cycle;Max_cycle;Signal;HPM_P1;HPM_P2
2021/10/08 00:00:24;;;;;;;;;;;23.70;45.60;;;;;;1532648;75;1939;-70
2021/10/08 00:02:26;;;;;;;;;;;23.70;45.60;;;;;;1541811;75;781;-70
2021/10/08 00:04:28;;;;;;;;;;;23.80;45.60;;;;;;1541725;76;738;-69
2021/10/08 00:06:30;;;;;;;;;;;23.70;45.50;;;;;;1538170;75;719;-70
2021/10/08 00:08:32;;;;;;;;;;;23.70;45.50;;;;;;1527799;75;1126;-70
2021/10/08 00:10:34;;;;;;;;;;;23.70;45.60;;;;;;1541794;76;817;-67
2021/10/08 00:12:36;;;;;;;;;;;23.70;45.60;;;;;;1537447;75;701;-71
2021/10/08 00:14:38;;;;;;;;;;;23.70;45.60;;;;;;1533507;75;696;-71
2021/10/08 00:16:39;;;;;;;;;;;23.70;45.70;;;;;;1542144;76;657;-70
2021/10/08 00:18:41;;;;;;;;;;;23.70;45.60;;;;;;1540755;75;1131;-71
2021/10/08 00:20:43;;;;;;;;;;;23.80;45.70;;;;;;1539967;76;1943;-70
2021/10/08 00:22:46;;;;;;;;;;;23.70;45.60;;;;;;1541885;76;668;-72
2021/10/08 00:24:48;;;;;;;;;;;23.70;45.60;;;;;;1541956;76;734;-69
2021/10/08 00:26:50;;;;;;;;;;;23.70;45.70;;;;;;1534349;76;628;-71
2021/10/08 00:28:51;;;;;;;;;;;23.70;45.70;;;;;;1537034;76;1124;-69
2021/10/08 00:30:53;;;;;;;;;;;23.70;45.70;;;;;;1534901;76;738;-71
2021/10/08 00:32:55;;;;;;;;;;;23.70;45.70;;;;;;1541623;75;737;-69
2021/10/08 00:34:57;;;;;;;;;;;23.70;45.70;;;;;;1529182;75;727;-70
2021/10/08 00:36:59;;;;;;;;;;;23.70;45.70;;;;;;1534546;76;740;-71
2021/10/08 00:39:01;;;;;;;;;;;23.70;45.70;;;;;;1538566;76;1104;-71
2021/10/08 00:41:05;;;;;;;;;;;23.70;45.70;;;;;;1541585;75;1925;-69
2021/10/08 00:43:07;;;;;;;;;;;23.70;45.70;;;;;;1541599;75;652;-70
2021/10/08 00:45:09;;;;;;;;;;;23.70;45.70;;;;;;1516952;77;675;-72
2021/10/08 00:47:12;;;;;;;;;;;23.70;45.60;;;;;;1586229;74;1136;-69
2021/10/08 00:49:13;;;;;;;;;;;23.60;45.60;;;;;;1594850;74;700;-71
2021/10/08 00:51:15;;;;;;;;;;;23.70;45.70;;;;;;1594481;74;544;-71
2021/10/08 00:53:18;;;;;;;;;;;23.70;45.70;;;;;;1566439;74;691;-71
2021/10/08 00:55:19;;;;;;;;;;;23.70;45.70;;;;;;1594038;74;688;-72
2021/10/08 00:57:21;;;;;;;;;;;23.60;45.60;;;;;;1598448;73;1170;-71
2021/10/08 00:59:25;;;;;;;;;;;23.60;45.60;;;;;;1588344;74;723;-72
2021/10/08 01:01:27;;;;;;;;;;;23.60;45.60;;;;;;1577913;74;1948;-72
2021/10/08 01:03:28;;;;;;;;;;;23.70;45.70;;;;;;1595477;74;703;-72
2021/10/08 01:05:30;;;;;;;;;;;23.60;45.60;;;;;;1594612;74;757;-72
2021/10/08 01:07:52;;;;;;;;;;;23.70;45.80;;;;;;1581370;74;1153;-68
2021/10/08 01:09:53;;;;;;;;;;;23.60;45.70;;;;;;1545571;75;690;-71
2021/10/08 01:11:55;;;;;;;;;;;23.60;45.70;;;;;;1550978;75;765;-70
2021/10/08 01:14:02;;;;;;;;;;;23.60;45.80;;;;;;1555510;76;830;-70
2021/10/08 01:16:01;;;;;;;;;;;23.60;45.70;;;;;;1552930;76;1615;-71
2021/10/08 01:18:03;;;;;;;;;;;23.60;45.70;;;;;;1559085;75;1210;-72
2021/10/08 01:20:06;;;;;;;;;;;23.60;45.70;;;;;;1567597;75;733;-73
2021/10/08 01:22:08;;;;;;;;;;;23.70;45.80;;;;;;1575274;75;776;-70
2021/10/08 01:24:10;;;;;;;;;;;23.60;45.70;;;;;;1586902;74;696;-70
2021/10/08 01:26:12;;;;;;;;;;;23.70;45.80;;;;;;1591443;74;734;-70
2021/10/08 01:28:14;;;;;;;;;;;23.60;45.70;;;;;;1587344;74;1167;-70
2021/10/08 01:30:16;;;;;;;;;;;23.60;45.70;;;;;;1583143;74;763;-71
2021/10/08 01:32:18;;;;;;;;;;;23.60;45.70;;;;;;1584990;74;675;-72
2021/10/08 01:34:20;;;;;;;;;;;23.60;45.60;;;;;;1577032;74;768;-71
2021/10/08 01:36:22;;;;;;;;;;;23.70;45.70;;;;;;1587131;74;777;-71
2021/10/08 01:38:24;;;;;;;;;;;23.70;45.70;;;;;;1593667;74;1127;-72
2021/10/08 01:40:25;;;;;;;;;;;23.60;45.50;;;;;;1588976;74;1921;-71
2021/10/08 01:42:27;;;;;;;;;;;23.60;45.60;;;;;;1588260;74;724;-71
2021/10/08 01:44:29;;;;;;;;;;;23.60;45.50;;;;;;1587044;74;784;-70
2021/10/08 01:46:31;;;;;;;;;;;23.70;45.70;;;;;;1595106;74;683;-71
2021/10/08 01:48:33;;;;;;;;;;;23.60;45.60;;;;;;1588189;74;1152;-71
2021/10/08 01:50:35;;;;;;;;;;;23.70;45.70;;;;;;1580364;74;804;-72
2021/10/08 01:52:37;;;;;;;;;;;23.70;45.70;;;;;;1585855;74;660;-71
2021/10/08 01:54:39;;;;;;;;;;;23.60;45.70;;;;;;1572923;74;772;-72
2021/10/08 01:56:44;;;;;;;;;;;23.60;45.70;;;;;;1587494;74;813;-71
2021/10/08 01:58:44;;;;;;;;;;;23.70;45.80;;;;;;1580777;74;1667;-72
2021/10/08 02:00:46;;;;;;;;;;;23.60;45.70;;;;;;1589568;74;1941;-71
2021/10/08 02:02:48;;;;;;;;;;;23.60;45.70;;;;;;1588211;74;775;-72
2021/10/08 02:04:50;;;;;;;;;;;23.60;45.70;;;;;;1588294;74;728;-72
2021/10/08 02:06:51;;;;;;;;;;;23.60;45.70;;;;;;1590045;74;775;-70
2021/10/08 02:08:53;;;;;;;;;;;23.60;45.70;;;;;;1588771;74;1160;-70
2021/10/08 02:10:55;;;;;;;;;;;23.60;45.70;;;;;;1590233;74;732;-69
2021/10/08 02:12:57;;;;;;;;;;;23.60;45.70;;;;;;1593572;74;716;-69
2021/10/08 02:14:59;;;;;;;;;;;23.60;45.70;;;;;;1579173;74;762;-70
2021/10/08 02:17:01;;;;;;;;;;;23.60;45.70;;;;;;1592819;74;664;-70
2021/10/08 02:19:03;;;;;;;;;;;23.60;45.70;;;;;;1592361;74;1090;-71
2021/10/08 02:21:05;;;;;;;;;;;23.60;45.70;;;;;;1599658;74;1940;-71
2021/10/08 02:23:08;;;;;;;;;;;23.60;45.70;;;;;;1592026;74;710;-71
2021/10/08 02:25:10;;;;;;;;;;;23.60;45.70;;;;;;1593441;74;713;-69
2021/10/08 02:27:12;;;;;;;;;;;23.60;45.70;;;;;;1592675;74;813;-70
2021/10/08 02:29:14;;;;;;;;;;;23.60;45.70;;;;;;1595865;74;1108;-70
2021/10/08 02:31:16;;;;;;;;;;;23.60;45.80;;;;;;1580175;74;732;-70
2021/10/08 02:33:18;;;;;;;;;;;23.60;45.90;;;;;;1594128;74;752;-70
2021/10/08 02:35:19;;;;;;;;;;;23.60;45.90;;;;;;1591212;74;646;-72
2021/10/08 02:37:21;;;;;;;;;;;23.60;46.00;;;;;;1583396;74;752;-70
2021/10/08 02:39:23;;;;;;;;;;;23.60;45.90;;;;;;1603146;74;1152;-70
2021/10/08 02:41:25;;;;;;;;;;;23.60;45.90;;;;;;1589932;74;1949;-70
2021/10/08 02:43:27;;;;;;;;;;;23.70;45.90;;;;;;1578025;74;752;-71
2021/10/08 02:45:29;;;;;;;;;;;23.70;45.80;;;;;;1588498;74;932;-71
2021/10/08 02:47:31;;;;;;;;;;;23.70;45.70;;;;;;1592546;74;1131;-71
2021/10/08 02:49:32;;;;;;;;;;;23.80;45.70;;;;;;1598570;74;781;-73
2021/10/08 02:51:35;;;;;;;;;;;23.90;45.60;;;;;;1581290;74;800;-72
2021/10/08 02:53:37;;;;;;;;;;;23.90;45.50;;;;;;1574348;74;734;-72
2021/10/08 02:55:39;;;;;;;;;;;24.00;45.30;;;;;;1566591;74;777;-75
2021/10/08 02:57:41;;;;;;;;;;;24.10;45.20;;;;;;1573979;74;1142;-74
2021/10/08 02:59:43;;;;;;;;;;;24.20;44.90;;;;;;1564888;74;784;-75
2021/10/08 03:01:45;;;;;;;;;;;24.20;44.70;;;;;;1577210;74;1953;-74
2021/10/08 03:03:46;;;;;;;;;;;24.30;44.70;;;;;;1571359;74;727;-74
2021/10/08 03:05:48;;;;;;;;;;;24.30;44.50;;;;;;1565862;74;756;-74
2021/10/08 03:07:50;;;;;;;;;;;24.40;44.40;;;;;;1564790;74;1166;-75
2021/10/08 03:09:52;;;;;;;;;;;24.40;44.30;;;;;;1570863;74;738;-74
2021/10/08 03:11:54;;;;;;;;;;;24.30;44.20;;;;;;1574233;74;913;-74
2021/10/08 03:13:56;;;;;;;;;;;24.40;44.30;;;;;;1569420;74;761;-73
2021/10/08 03:15:58;;;;;;;;;;;24.40;44.20;;;;;;1564936;74;760;-74
2021/10/08 03:17:59;;;;;;;;;;;24.30;44.30;;;;;;1564970;74;1128;-75
2021/10/08 03:20:02;;;;;;;;;;;24.40;44.20;;;;;;1566429;74;782;-74
2021/10/08 03:22:03;;;;;;;;;;;24.40;44.30;;;;;;1564884;74;1926;-71
2021/10/08 03:24:05;;;;;;;;;;;24.40;44.20;;;;;;1569616;74;820;-73
2021/10/08 03:26:07;;;;;;;;;;;24.40;44.30;;;;;;1565787;74;792;-72
2021/10/08 03:28:10;;;;;;;;;;;24.20;44.20;;;;;;1572449;74;1084;-72
2021/10/08 03:30:14;;;;;;;;;;;24.20;44.20;;;;;;1566691;74;711;-73
2021/10/08 03:32:16;;;;;;;;;;;24.20;44.30;;;;;;1558154;74;691;-71
2021/10/08 03:34:18;;;;;;;;;;;24.20;44.30;;;;;;1569797;74;794;-72
2021/10/08 03:36:35;;;;;;;;;;;24.20;44.30;;;;;;1579709;74;770;-72
2021/10/08 03:38:32;;;;;;;;;;;24.20;44.40;;;;;;1568847;74;1759;-73
2021/10/08 03:40:33;;;;;;;;;;;24.20;44.40;;;;;;1570708;74;1766;-74
2021/10/08 03:42:35;;;;;;;;;;;24.20;44.30;;;;;;1571512;74;1932;-73
2021/10/08 03:44:39;;;;;;;;;;;24.30;44.30;;;;;;1562237;74;732;-70
2021/10/08 03:46:45;;;;;;;;;;;24.30;44.00;;;;;;1570254;74;785;-73
2021/10/08 03:51:04;;;;;;;;;;;24.40;43.80;;;;;;1563957;74;1621;-74
2021/10/08 03:53:06;;;;;;;;;;;24.50;43.70;;;;;;1558649;74;706;-72
2021/10/08 03:55:08;;;;;;;;;;;24.50;43.60;;;;;;1573896;74;777;-72
2021/10/08 03:57:10;;;;;;;;;;;24.60;43.60;;;;;;1571512;74;766;-72
2021/10/08 03:59:12;;;;;;;;;;;24.60;43.50;;;;;;1566003;74;1128;-71
2021/10/08 04:01:14;;;;;;;;;;;24.60;43.40;;;;;;1570183;74;1933;-72
2021/10/08 04:03:15;;;;;;;;;;;24.60;43.50;;;;;;1578928;74;714;-71
2021/10/08 04:05:17;;;;;;;;;;;24.60;43.50;;;;;;1578671;74;713;-73
2021/10/08 04:07:19;;;;;;;;;;;24.60;43.60;;;;;;1572634;74;679;-73
2021/10/08 04:09:21;;;;;;;;;;;24.40;43.70;;;;;;1571749;74;1103;-74
2021/10/08 04:11:23;;;;;;;;;;;24.40;44.00;;;;;;1572818;74;720;-74
2021/10/08 04:13:25;;;;;;;;;;;24.40;44.00;;;;;;1574276;74;741;-74
2021/10/08 04:15:27;;;;;;;;;;;24.50;44.00;;;;;;1566451;74;755;-75
2021/10/08 04:17:29;;;;;;;;;;;24.50;43.90;;;;;;1564502;74;1186;-74
2021/10/08 04:19:30;;;;;;;;;;;24.40;43.90;;;;;;1566083;74;651;-74
2021/10/08 04:21:33;;;;;;;;;;;24.40;44.00;;;;;;1566666;74;1959;-73
2021/10/08 04:23:35;;;;;;;;;;;24.40;44.00;;;;;;1568558;74;732;-74
2021/10/08 04:25:37;;;;;;;;;;;24.40;44.10;;;;;;1571020;74;739;-73
2021/10/08 04:27:38;;;;;;;;;;;24.30;44.20;;;;;;1565270;74;1156;-74
2021/10/08 04:29:40;;;;;;;;;;;24.30;44.20;;;;;;1572248;74;790;-73
2021/10/08 04:31:42;;;;;;;;;;;24.30;44.30;;;;;;1561473;74;783;-72
2021/10/08 04:33:44;;;;;;;;;;;24.30;44.30;;;;;;1573288;74;771;-73
2021/10/08 04:35:46;;;;;;;;;;;24.30;44.30;;;;;;1581011;74;751;-73
2021/10/08 04:37:48;;;;;;;;;;;24.30;44.40;;;;;;1571258;74;1146;-73
2021/10/08 04:39:50;;;;;;;;;;;24.30;44.40;;;;;;1573121;74;781;-73
2021/10/08 04:41:52;;;;;;;;;;;24.30;44.40;;;;;;1579055;74;1938;-72
2021/10/08 04:43:53;;;;;;;;;;;24.20;44.40;;;;;;1573744;74;698;-72
2021/10/08 04:45:55;;;;;;;;;;;24.20;44.50;;;;;;1579194;74;796;-72
2021/10/08 04:47:57;;;;;;;;;;;24.20;44.50;;;;;;1579519;74;1137;-72
2021/10/08 04:49:59;;;;;;;;;;;24.10;44.70;;;;;;1575829;74;738;-73
2021/10/08 04:52:01;;;;;;;;;;;24.20;44.70;;;;;;1578876;74;677;-70
2021/10/08 04:54:03;;;;;;;;;;;24.10;44.70;;;;;;1580688;74;736;-73
2021/10/08 04:56:05;;;;;;;;;;;24.20;44.80;;;;;;1565256;74;782;-73
2021/10/08 04:58:07;;;;;;;;;;;24.20;44.60;;;;;;1552483;74;1146;-71
2021/10/08 05:00:09;;;;;;;;;;;24.20;44.50;;;;;;1599662;74;712;-70
2021/10/08 05:02:11;;;;;;;;;;;24.20;44.50;;;;;;1592506;74;1944;-71
2021/10/08 05:04:13;;;;;;;;;;;24.20;44.50;;;;;;1588156;74;701;-71
2021/10/08 05:06:15;;;;;;;;;;;24.20;44.60;;;;;;1592846;74;756;-72
2021/10/08 05:08:17;;;;;;;;;;;24.00;44.50;;;;;;1592683;74;1121;-74
2021/10/08 05:10:22;;;;;;;;;;;24.00;44.60;;;;;;1599763;74;782;-67
2021/10/08 05:12:25;;;;;;;;;;;24.00;44.70;;;;;;1580295;74;1727;-71
2021/10/08 05:14:26;;;;;;;;;;;24.00;44.90;;;;;;1592409;74;1693;-71
2021/10/08 05:16:29;;;;;;;;;;;24.10;45.00;;;;;;1592398;74;673;-70
2021/10/08 05:18:31;;;;;;;;;;;24.00;44.80;;;;;;1599701;74;1181;-71
2021/10/08 05:20:33;;;;;;;;;;;24.00;44.80;;;;;;1578518;74;805;-70
2021/10/08 05:22:35;;;;;;;;;;;24.10;45.00;;;;;;1593692;74;1941;-70
2021/10/08 05:24:37;;;;;;;;;;;24.00;44.90;;;;;;1592701;74;688;-67
2021/10/08 05:26:39;;;;;;;;;;;24.10;45.10;;;;;;1592152;74;792;-70
2021/10/08 05:28:41;;;;;;;;;;;24.10;45.10;;;;;;1587304;74;1153;-69
2021/10/08 05:30:42;;;;;;;;;;;24.20;45.00;;;;;;1578968;74;835;-69
2021/10/08 05:32:44;;;;;;;;;;;24.20;44.80;;;;;;1587481;74;785;-70
2021/10/08 05:34:46;;;;;;;;;;;24.10;44.90;;;;;;1578551;74;755;-69
2021/10/08 05:36:51;;;;;;;;;;;24.10;45.00;;;;;;1579950;74;730;-70
2021/10/08 05:38:53;;;;;;;;;;;24.00;44.90;;;;;;1591998;74;1148;-69
2021/10/08 05:40:55;;;;;;;;;;;24.00;44.90;;;;;;1593383;74;734;-69
2021/10/08 05:42:57;;;;;;;;;;;24.00;44.90;;;;;;1592525;74;1944;-70
2021/10/08 05:44:59;;;;;;;;;;;24.00;45.00;;;;;;1598303;74;763;-68
2021/10/08 05:47:01;;;;;;;;;;;23.90;45.00;;;;;;1585186;74;674;-70
2021/10/08 05:49:03;;;;;;;;;;;23.90;44.90;;;;;;1588636;74;1133;-70
2021/10/08 05:51:05;;;;;;;;;;;23.90;45.00;;;;;;1592486;74;786;-70
2021/10/08 05:53:08;;;;;;;;;;;24.00;45.00;;;;;;1604472;74;728;-70
2021/10/08 05:55:10;;;;;;;;;;;23.90;45.00;;;;;;1583265;74;761;-70
2021/10/08 05:57:12;;;;;;;;;;;23.90;45.00;;;;;;1565740;74;733;-69
2021/10/08 05:59:14;;;;;;;;;;;23.90;45.10;;;;;;1577028;74;1140;-71
2021/10/08 06:01:16;;;;;;;;;;;23.90;45.10;;;;;;1575200;74;740;-68
2021/10/08 06:03:17;;;;;;;;;;;23.90;45.00;;;;;;1601345;74;1934;-70
2021/10/08 06:05:19;;;;;;;;;;;23.90;45.00;;;;;;1579270;74;722;-68
2021/10/08 06:07:21;;;;;;;;;;;23.90;45.00;;;;;;1579285;74;742;-69
2021/10/08 06:09:23;;;;;;;;;;;23.90;45.00;;;;;;1582283;74;1050;-68
2021/10/08 06:11:25;;;;;;;;;;;23.80;45.00;;;;;;1592527;74;922;-70
2021/10/08 06:13:28;;;;;;;;;;;23.90;45.10;;;;;;1603054;74;732;-71
2021/10/08 06:15:30;;;;;;;;;;;23.80;45.00;;;;;;1589661;74;810;-71
2021/10/08 06:17:32;;;;;;;;;;;23.80;45.00;;;;;;1581636;74;1140;-70
2021/10/08 06:19:34;;;;;;;;;;;23.90;45.00;;;;;;1592498;74;758;-71
2021/10/08 06:21:36;;;;;;;;;;;23.90;45.10;;;;;;1592613;74;703;-69
2021/10/08 06:23:38;;;;;;;;;;;23.80;44.90;;;;;;1592485;74;1934;-70
2021/10/08 06:25:39;;;;;;;;;;;23.80;45.00;;;;;;1595877;74;840;-69
2021/10/08 06:27:41;;;;;;;;;;;23.90;45.00;;;;;;1586716;74;1155;-69
2021/10/08 06:29:43;;;;;;;;;;;23.80;45.00;;;;;;1578866;74;814;-70
2021/10/08 06:31:45;;;;;;;;;;;23.80;45.00;;;;;;1579112;74;806;-66
2021/10/08 06:33:47;;;;;;;;;;;23.80;45.00;;;;;;1576032;74;764;-67
2021/10/08 06:35:49;;;;;;;;;;;23.80;45.00;;;;;;1584993;74;770;-70
2021/10/08 06:37:51;;;;;;;;;;;23.70;45.00;;;;;;1572130;74;1139;-71
2021/10/08 06:39:53;;;;;;;;;;;23.80;45.00;;;;;;1595587;74;716;-72
2021/10/08 06:41:56;;;;;;;;;;;23.80;45.00;;;;;;1592454;74;637;-70
2021/10/08 06:43:58;;;;;;;;;;;23.70;45.00;;;;;;1589539;74;1895;-71
2021/10/08 06:46:00;;;;;;;;;;;23.70;45.10;;;;;;1593729;74;712;-70
2021/10/08 06:48:02;;;;;;;;;;;23.80;45.00;;;;;;1574996;74;1160;-69
2021/10/08 06:50:04;;;;;;;;;;;23.70;45.10;;;;;;1564967;74;733;-70
2021/10/08 06:52:06;;;;;;;;;;;23.70;45.00;;;;;;1567668;74;652;-70
2021/10/08 06:54:08;;;;;;;;;;;23.80;45.10;;;;;;1567100;74;796;-70
2021/10/08 06:56:10;;;;;;;;;;;23.80;45.10;;;;;;1575872;74;787;-71
2021/10/08 06:58:12;;;;;;;;;;;23.70;45.10;;;;;;1577233;74;1131;-71
2021/10/08 07:00:14;;;;;;;;;;;23.70;45.10;;;;;;1572332;74;840;-72
2021/10/08 07:02:16;;;;;;;;;;;23.70;45.10;;;;;;1567201;74;1947;-68
2021/10/08 07:04:18;;;;;;;;;;;23.70;45.20;;;;;;1575577;74;759;-70
2021/10/08 07:06:20;;;;;;;;;;;23.70;45.10;;;;;;1579481;74;818;-71
2021/10/08 07:08:22;;;;;;;;;;;23.70;45.20;;;;;;1572894;73;2107;-68
2021/10/08 07:10:24;;;;;;;;;;;23.70;45.20;;;;;;1531233;76;690;-68
2021/10/08 07:12:27;;;;;;;;;;;23.70;45.20;;;;;;1531992;75;764;-67
2021/10/08 07:14:29;;;;;;;;;;;23.70;45.20;;;;;;1542769;75;737;-71
2021/10/08 07:16:31;;;;;;;;;;;23.70;45.20;;;;;;1544629;75;746;-68
2021/10/08 07:18:36;;;;;;;;;;;23.70;45.20;;;;;;1566458;75;1209;-70
2021/10/08 07:20:38;;;;;;;;;;;23.70;45.20;;;;;;1580382;74;920;-70
2021/10/08 07:22:40;;;;;;;;;;;23.70;45.20;;;;;;1575859;74;1923;-70
2021/10/08 07:24:42;;;;;;;;;;;23.70;45.20;;;;;;1570941;74;777;-68
2021/10/08 07:26:44;;;;;;;;;;;23.70;45.20;;;;;;1565545;74;763;-70
2021/10/08 07:28:46;;;;;;;;;;;23.70;45.20;;;;;;1573743;74;1156;-71
2021/10/08 07:30:48;;;;;;;;;;;23.80;45.20;;;;;;1586072;74;750;-70
2021/10/08 07:32:50;;;;;;;;;;;23.80;45.20;;;;;;1589701;74;716;-70
2021/10/08 07:34:51;;;;;;;;;;;23.70;45.10;;;;;;1585445;74;737;-71
2021/10/08 07:36:53;;;;;;;;;;;23.80;45.10;;;;;;1589616;74;710;-70
2021/10/08 07:38:55;;;;;;;;;;;23.80;45.00;;;;;;1588572;74;1118;-70
2021/10/08 07:40:57;;;;;;;;;;;23.80;45.00;;;;;;1584927;73;814;-67
2021/10/08 07:42:59;;;;;;;;;;;23.90;44.90;;;;;;1564535;74;1931;-70
2021/10/08 07:45:02;;;;;;;;;;;23.90;44.90;;;;;;1561151;74;608;-70
2021/10/08 07:47:04;;;;;;;;;;;23.90;44.80;;;;;;1559040;75;1494;-69
2021/10/08 07:49:06;;;;;;;;;;;24.00;44.80;;;;;;1564132;74;1122;-71
2021/10/08 07:51:08;;;;;;;;;;;24.00;44.70;;;;;;1568835;74;857;-69
2021/10/08 07:53:10;;;;;;;;;;;23.90;44.70;;;;;;1572802;74;692;-68
2021/10/08 07:55:12;;;;;;;;;;;24.00;44.70;;;;;;1575701;74;766;-67
2021/10/08 07:57:14;;;;;;;;;;;24.00;44.60;;;;;;1571407;74;777;-68
2021/10/08 07:59:15;;;;;;;;;;;24.00;44.60;;;;;;1573487;74;1142;-67
2021/10/08 08:01:17;;;;;;;;;;;24.00;44.50;;;;;;1588320;74;713;-70
2021/10/08 08:03:19;;;;;;;;;;;24.00;44.40;;;;;;1587938;74;1929;-68
2021/10/08 08:05:21;;;;;;;;;;;24.00;44.40;;;;;;1592843;74;670;-68
2021/10/08 08:07:23;;;;;;;;;;;24.00;44.40;;;;;;1588778;74;763;-69
2021/10/08 08:09:25;;;;;;;;;;;24.10;44.60;;;;;;1583627;73;1113;-69
2021/10/08 08:11:27;;;;;;;;;;;24.00;44.40;;;;;;1587369;73;767;-69
2021/10/08 08:13:29;;;;;;;;;;;24.00;44.40;;;;;;1586077;73;786;-69
2021/10/08 08:15:31;;;;;;;;;;;24.00;44.40;;;;;;1585773;74;766;-69
2021/10/08 08:17:33;;;;;;;;;;;24.00;44.40;;;;;;1584029;73;766;-69
2021/10/08 08:19:34;;;;;;;;;;;24.00;44.40;;;;;;1581667;73;1141;-70
2021/10/08 08:21:36;;;;;;;;;;;24.00;44.40;;;;;;1591511;74;808;-70
2021/10/08 08:23:38;;;;;;;;;;;24.10;44.50;;;;;;1578536;74;1982;-68
2021/10/08 08:25:40;;;;;;;;;;;24.00;44.40;;;;;;1586987;74;736;-70
2021/10/08 08:27:42;;;;;;;;;;;24.10;44.40;;;;;;1571914;74;715;-70
2021/10/08 08:29:44;;;;;;;;;;;24.10;44.40;;;;;;1571091;73;1153;-69
2021/10/08 08:31:46;;;;;;;;;;;24.10;44.40;;;;;;1569738;73;774;-68
2021/10/08 08:33:47;;;;;;;;;;;24.00;44.30;;;;;;1561272;75;679;-69
2021/10/08 08:35:50;;;;;;;;;;;24.00;44.30;;;;;;1534622;76;769;-69
2021/10/08 08:37:52;;;;;;;;;;;24.00;44.30;;;;;;1510952;77;1118;-70
2021/10/08 08:39:54;;;;;;;;;;;24.00;44.40;;;;;;1509886;76;718;-69
2021/10/08 08:41:57;;;;;;;;;;;24.00;44.40;;;;;;1545412;76;590;-70
2021/10/08 08:43:58;;;;;;;;;;;24.00;44.40;;;;;;1548011;76;1909;-69
2021/10/08 08:46:00;;;;;;;;;;;24.00;44.50;;;;;;1545945;76;683;-69
2021/10/08 08:48:06;;;;;;;;;;;24.00;44.40;;;;;;1551006;75;1141;-69
2021/10/08 08:50:08;;;;;;;;;;;24.00;44.40;;;;;;1547286;75;631;-69
2021/10/08 08:52:10;;;;;;;;;;;24.00;44.40;;;;;;1514910;78;743;-69
2021/10/08 08:54:12;;;;;;;;;;;24.00;44.40;;;;;;1585259;73;709;-70
2021/10/08 08:56:13;;;;;;;;;;;24.00;44.40;;;;;;1580260;73;748;-68
2021/10/08 08:58:15;;;;;;;;;;;24.00;44.40;;;;;;1587295;73;1120;-70
2021/10/08 09:00:18;;;;;;;;;;;24.00;44.40;;;;;;1587825;75;650;-66
2021/10/08 09:02:20;;;;;;;;;;;24.00;44.40;;;;;;1583094;75;656;-68
2021/10/08 09:04:24;;;;;;;;;;;24.00;44.40;;;;;;1559834;74;1944;-68
2021/10/08 09:06:29;;;;;;;;;;;24.00;44.40;;;;;;1576498;73;703;-67
2021/10/08 09:08:32;;;;;;;;;;;23.90;44.40;;;;;;1588328;74;1153;-69
2021/10/08 09:10:35;;;;;;;;;;;23.90;44.50;;;;;;1591103;73;784;-69
2021/10/08 09:12:37;;;;;;;;;;;23.90;44.50;;;;;;1590850;74;664;-69
2021/10/08 09:14:39;;;;;;;;;;;23.90;44.50;;;;;;1591630;73;774;-69
2021/10/08 09:16:42;;;;;;;;;;;23.90;44.50;;;;;;1587915;74;732;-69
2021/10/08 09:18:46;;;;;;;;;;;23.90;44.60;;;;;;1579692;73;1298;-71
2021/10/08 09:21:05;;;;;;;;;;;23.90;44.50;;;;;;1580095;73;1908;-66
2021/10/08 09:23:07;;;;;;;;;;;23.80;44.40;;;;;;1586043;73;1935;-70
2021/10/08 09:25:34;;;;;;;;;;;23.80;44.50;;;;;;1583591;73;715;-70
2021/10/08 09:27:33;;;;;;;;;;;23.80;44.50;;;;;;1584136;74;1082;-69
2021/10/08 09:29:34;;;;;;;;;;;23.80;44.50;;;;;;1555742;76;1176;-69
2021/10/08 09:31:40;;;;;;;;;;;23.80;44.50;;;;;;1585383;73;677;-69
2021/10/08 09:33:41;;;;;;;;;;;23.80;44.60;;;;;;1586503;74;711;-69
2021/10/08 09:35:44;;;;;;;;;;;23.80;44.60;;;;;;1586880;73;642;-70
2021/10/08 09:38:05;;;;;;;;;;;23.70;44.50;;;;;;1574935;73;770;-69
2021/10/08 09:40:08;;;;;;;;;;;23.80;44.60;;;;;;1586451;74;1494;-66
2021/10/08 09:42:14;;;;;;;;;;;23.80;44.60;;;;;;1583459;73;1117;-70
2021/10/08 09:44:16;;;;;;;;;;;23.80;44.60;;;;;;1584611;73;1919;-68
2021/10/08 09:46:19;;;;;;;;;;;23.70;44.60;;;;;;1580912;74;749;-68
2021/10/08 09:48:22;;;;;;;;;;;23.80;44.70;;;;;;1580294;72;1277;-69
2021/10/08 09:50:24;;;;;;;;;;;23.70;44.60;;;;;;1586733;74;1098;-69
2021/10/08 09:52:26;;;;;;;;;;;23.80;44.70;;;;;;1587720;73;726;-69
2021/10/08 09:54:29;;;;;;;;;;;23.80;44.70;;;;;;1589879;74;777;-69
2021/10/08 09:56:42;;;;;;;;;;;23.80;44.70;;;;;;1593443;73;1788;-70
2021/10/08 09:58:51;;;;;;;;;;;23.80;44.70;;;;;;1586654;74;1163;-70
2021/10/08 10:01:07;;;;;;;;;;;23.70;44.70;;;;;;1556206;75;752;-69
2021/10/08 10:03:09;;;;;;;;;;;23.80;44.70;;;;;;1529855;76;600;-69
2021/10/08 10:05:11;;;;;;;;;;;23.70;44.60;;;;;;1556898;75;1932;-70
2021/10/08 10:07:18;;;;;;;;;;;23.70;44.70;;;;;;1527830;76;697;-70
2021/10/08 10:09:21;;;;;;;;;;;23.70;44.70;;;;;;1557130;76;1135;-70
2021/10/08 10:11:24;;;;;;;;;;;23.80;44.70;;;;;;1531068;76;773;-69
2021/10/08 10:13:26;;;;;;;;;;;23.70;44.70;;;;;;1528658;77;723;-69
2021/10/08 10:15:28;;;;;;;;;;;23.70;44.70;;;;;;1557360;75;798;-69
2021/10/08 10:17:30;;;;;;;;;;;23.80;44.70;;;;;;1532864;77;718;-69
2021/10/08 10:19:31;;;;;;;;;;;23.70;44.70;;;;;;1569723;75;1169;-70
2021/10/08 10:21:36;;;;;;;;;;;23.70;44.70;;;;;;1571771;75;632;-69
2021/10/08 10:23:37;;;;;;;;;;;23.70;44.60;;;;;;1560959;75;1928;-68
2021/10/08 10:25:39;;;;;;;;;;;23.80;44.70;;;;;;1552663;76;785;-68
2021/10/08 10:27:41;;;;;;;;;;;23.70;44.70;;;;;;1559602;76;773;-71
2021/10/08 10:29:44;;;;;;;;;;;23.80;44.70;;;;;;1559542;75;1068;-70
2021/10/08 10:31:46;;;;;;;;;;;23.70;44.70;;;;;;1557270;76;724;-69
2021/10/08 10:33:48;;;;;;;;;;;23.80;44.60;;;;;;1558114;75;729;-70
2021/10/08 10:35:51;;;;;;;;;;;23.80;44.60;;;;;;1554587;75;681;-71
2021/10/08 10:37:53;;;;;;;;;;;23.70;44.70;;;;;;1552211;76;1083;-70
2021/10/08 10:39:56;;;;;;;;;;;23.90;44.70;;;;;;1554871;75;787;-71
2021/10/08 10:42:03;;;;;;;;;;;23.90;44.50;;;;;;1534791;75;1057;-69
2021/10/08 10:44:12;;;;;;;;;;;24.00;44.40;;;;;;1548092;75;1928;-71
2021/10/08 10:46:30;;;;;;;;;;;23.90;45.90;;;;;;1535542;76;1351;-70
2021/10/08 10:48:30;;;;;;;;;;;23.80;46.80;;;;;;1547256;75;1499;-65
2021/10/08 10:50:59;;;;;;;;;;;23.70;47.00;;;;;;1547960;75;1349;-70
2021/10/08 10:52:35;;;;;;;;;;;23.70;47.60;;;;;;1536780;75;1278;-70
2021/10/08 10:54:41;;;;;;;;;;;23.70;47.50;;;;;;1531849;76;1089;-70
2021/10/08 10:56:43;;;;;;;;;;;23.70;49.50;;;;;;1549077;75;910;-70
2021/10/08 10:58:45;;;;;;;;;;;23.70;48.90;;;;;;1547706;75;1469;-68
2021/10/08 11:00:47;;;;;;;;;;;23.70;49.20;;;;;;1543897;76;668;-71
2021/10/08 11:02:51;;;;;;;;;;;23.70;48.80;;;;;;1555270;75;717;-70
2021/10/08 11:04:56;;;;;;;;;;;23.70;48.60;;;;;;1549793;75;2003;-70
2021/10/08 11:07:07;;;;;;;;;;;23.70;48.70;;;;;;1547629;75;1849;-69
2021/10/08 11:09:15;;;;;;;;;;;23.80;48.30;;;;;;1553423;75;1188;-68
2021/10/08 11:11:15;;;;;;;;;;;24.00;47.90;;;;;;1550826;74;1650;-69
2021/10/08 11:13:24;;;;;;;;;;;24.00;47.70;;;;;;1542524;75;749;-70
2021/10/08 11:15:26;;;;;;;;;;;24.00;47.60;;;;;;1546883;75;1016;-70
2021/10/08 11:17:45;;;;;;;;;;;24.20;47.40;;;;;;1549955;75;907;-68
2021/10/08 11:19:47;;;;;;;;;;;24.30;47.00;;;;;;1550994;75;1127;-69
2021/10/08 11:21:49;;;;;;;;;;;24.30;46.70;;;;;;1551111;75;769;-68
2021/10/08 11:23:51;;;;;;;;;;;24.40;46.60;;;;;;1543545;76;1924;-69
2021/10/08 11:25:55;;;;;;;;;;;24.50;46.30;;;;;;1546974;75;806;-69
2021/10/08 11:27:57;;;;;;;;;;;24.50;46.10;;;;;;1543616;76;1122;-69
2021/10/08 11:30:00;;;;;;;;;;;24.60;45.90;;;;;;1541803;76;693;-70
2021/10/08 11:32:03;;;;;;;;;;;24.50;46.00;;;;;;1541763;74;1642;-68
2021/10/08 11:34:07;;;;;;;;;;;24.50;46.00;;;;;;1544001;75;748;-69
2021/10/08 11:36:20;;;;;;;;;;;24.50;46.00;;;;;;1545073;75;1583;-69
2021/10/08 11:38:22;;;;;;;;;;;24.50;46.00;;;;;;1544624;76;1153;-70
2021/10/08 11:40:27;;;;;;;;;;;24.40;45.90;;;;;;1542285;76;799;-72
2021/10/08 11:42:31;;;;;;;;;;;24.30;45.90;;;;;;1542258;76;718;-69
2021/10/08 11:44:37;;;;;;;;;;;24.20;45.70;;;;;;1544307;75;1983;-70
2021/10/08 11:46:53;;;;;;;;;;;24.20;45.70;;;;;;1538248;76;1119;-71
2021/10/08 11:48:52;;;;;;;;;;;24.10;45.50;;;;;;1542627;76;1559;-68
2021/10/08 11:51:02;;;;;;;;;;;24.10;45.40;;;;;;1512586;76;1565;-69
2021/10/08 11:52:56;;;;;;;;;;;24.10;45.10;;;;;;1507149;76;1670;-68
2021/10/08 11:55:11;;;;;;;;;;;24.00;44.20;;;;;;1539237;75;786;-68
2021/10/08 11:57:13;;;;;;;;;;;24.00;44.00;;;;;;1535029;75;774;-68
2021/10/08 11:59:16;;;;;;;;;;;24.00;43.60;;;;;;1516046;77;1061;-68
2021/10/08 12:01:23;;;;;;;;;;;23.90;43.50;;;;;;1508896;77;752;-68
2021/10/08 12:03:26;;;;;;;;;;;23.90;43.10;;;;;;1515128;76;981;-67
2021/10/08 12:05:29;;;;;;;;;;;23.70;43.40;;;;;;1578104;74;1918;-68
2021/10/08 12:07:37;;;;;;;;;;;23.70;43.10;;;;;;1571026;74;1531;-67
2021/10/08 12:09:39;;;;;;;;;;;23.70;43.30;;;;;;1578973;74;1173;-67
2021/10/08 12:11:41;;;;;;;;;;;23.70;42.70;;;;;;1580270;74;784;-66
2021/10/08 12:13:54;;;;;;;;;;;23.60;42.40;;;;;;1577384;74;615;-67